sensor_id;sensor_type;location;lat;lon;timestamp;temperature;humidity
27376;DHT22;14844;51.302;6.354;2023-06-24T00:00:34;16.10;99.90
27376;DHT22;14844;51.302;6.354;2023-06-24T00:03:02;16.10;99.90
27376;DHT22;14844;51.302;6.354;2023-06-24T00:05:27;16.10;99.90
27376;DHT22;14844;51.302;6.354;2023-06-24T00:07:53;16.10;99.90
27376;DHT22;14844;51.302;6.354;2023-06-24T00:10:22;16.10;99.90
27376;DHT22;14844;51.302;6.354;2023-06-24T00:12:47;16.10;99.90
27376;DHT22;14844;51.302;6.354;2023-06-24T00:15:13;16.10;99.90
27376;DHT22;14844;51.302;6.354;2023-06-24T00:17:39;16.20;99.90
27376;DHT22;14844;51.302;6.354;2023-06-24T00:20:04;16.20;99.90
27376;DHT22;14844;51.302;6.354;2023-06-24T00:22:32;16.20;99.90
27376;DHT22;14844;51.302;6.354;2023-06-24T00:24:58;16.10;99.90
27376;DHT22;14844;51.302;6.354;2023-06-24T00:27:24;16.10;99.90
27376;DHT22;14844;51.302;6.354;2023-06-24T00:29:50;16.00;99.90
27376;DHT22;14844;51.302;6.354;2023-06-24T00:32:15;16.00;99.90
27376;DHT22;14844;51.302;6.354;2023-06-24T00:34:41;16.00;99.90
27376;DHT22;14844;51.302;6.354;2023-06-24T00:37:10;15.90;99.90
27376;DHT22;14844;51.302;6.354;2023-06-24T00:39:35;15.90;99.90
27376;DHT22;14844;51.302;6.354;2023-06-24T00:42:01;15.90;99.90
27376;DHT22;14844;51.302;6.354;2023-06-24T00:44:26;16.00;99.90
27376;DHT22;14844;51.302;6.354;2023-06-24T00:46:53;16.00;99.90
27376;DHT22;14844;51.302;6.354;2023-06-24T00:49:19;16.00;99.90
27376;DHT22;14844;51.302;6.354;2023-06-24T00:51:44;16.00;99.90
27376;DHT22;14844;51.302;6.354;2023-06-24T00:54:12;16.00;99.90
27376;DHT22;14844;51.302;6.354;2023-06-24T00:56:38;16.00;99.90
27376;DHT22;14844;51.302;6.354;2023-06-24T00:59:03;15.90;99.90
27376;DHT22;14844;51.302;6.354;2023-06-24T01:01:30;15.90;99.90
27376;DHT22;14844;51.302;6.354;2023-06-24T01:03:58;16.00;99.90
27376;DHT22;14844;51.302;6.354;2023-06-24T01:06:24;16.00;99.90
27376;DHT22;14844;51.302;6.354;2023-06-24T01:08:57;16.00;99.90
27376;DHT22;14844;51.302;6.354;2023-06-24T01:11:23;16.00;99.90
27376;DHT22;14844;51.302;6.354;2023-06-24T01:13:49;16.10;99.90
27376;DHT22;14844;51.302;6.354;2023-06-24T01:16:18;16.20;99.90
27376;DHT22;14844;51.302;6.354;2023-06-24T01:18:47;16.20;99.90
27376;DHT22;14844;51.302;6.354;2023-06-24T01:24:21;16.30;99.90
27376;DHT22;14844;51.302;6.354;2023-06-24T01:27:01;16.40;99.90
27376;DHT22;14844;51.302;6.354;2023-06-24T01:32:33;16.60;99.90
27376;DHT22;14844;51.302;6.354;2023-06-24T01:35:01;16.80;99.90
27376;DHT22;14844;51.302;6.354;2023-06-24T01:37:37;16.90;99.90
27376;DHT22;14844;51.302;6.354;2023-06-24T01:40:20;17.00;99.90
27376;DHT22;14844;51.302;6.354;2023-06-24T01:42:48;17.00;99.90
27376;DHT22;14844;51.302;6.354;2023-06-24T01:45:15;17.10;99.90
27376;DHT22;14844;51.302;6.354;2023-06-24T01:47:43;17.10;99.90
27376;DHT22;14844;51.302;6.354;2023-06-24T01:50:09;17.10;99.90
27376;DHT22;14844;51.302;6.354;2023-06-24T01:52:35;17.10;99.90
27376;DHT22;14844;51.302;6.354;2023-06-24T01:55:02;17.10;99.90
27376;DHT22;14844;51.302;6.354;2023-06-24T01:57:29;17.10;99.90
27376;DHT22;14844;51.302;6.354;2023-06-24T01:59:55;17.00;99.90
27376;DHT22;14844;51.302;6.354;2023-06-24T02:02:21;16.90;99.90
27376;DHT22;14844;51.302;6.354;2023-06-24T02:04:50;16.90;99.90
27376;DHT22;14844;51.302;6.354;2023-06-24T02:07:16;16.80;99.90
27376;DHT22;14844;51.302;6.354;2023-06-24T02:09:44;16.80;99.90
27376;DHT22;14844;51.302;6.354;2023-06-24T02:12:09;16.90;99.90
27376;DHT22;14844;51.302;6.354;2023-06-24T02:14:35;16.90;99.90
27376;DHT22;14844;51.302;6.354;2023-06-24T02:17:03;17.00;99.90
27376;DHT22;14844;51.302;6.354;2023-06-24T02:19:30;17.00;99.90
27376;DHT22;14844;51.302;6.354;2023-06-24T02:21:56;16.80;99.90
27376;DHT22;14844;51.302;6.354;2023-06-24T02:24:23;16.60;99.90
27376;DHT22;14844;51.302;6.354;2023-06-24T02:26:49;16.50;99.90
27376;DHT22;14844;51.302;6.354;2023-06-24T02:29:15;16.40;99.90
27376;DHT22;14844;51.302;6.354;2023-06-24T02:31:41;16.30;99.90
27376;DHT22;14844;51.302;6.354;2023-06-24T02:34:07;16.30;99.90
27376;DHT22;14844;51.302;6.354;2023-06-24T02:36:32;16.20;99.90
27376;DHT22;14844;51.302;6.354;2023-06-24T02:38:58;16.10;99.90
27376;DHT22;14844;51.302;6.354;2023-06-24T02:41:23;16.10;99.90
27376;DHT22;14844;51.302;6.354;2023-06-24T02:43:49;16.00;99.90
27376;DHT22;14844;51.302;6.354;2023-06-24T02:46:14;15.90;99.90
27376;DHT22;14844;51.302;6.354;2023-06-24T02:48:40;15.90;99.90
27376;DHT22;14844;51.302;6.354;2023-06-24T02:51:07;15.90;99.90
27376;DHT22;14844;51.302;6.354;2023-06-24T02:53:36;15.90;99.90
27376;DHT22;14844;51.302;6.354;2023-06-24T02:56:01;16.00;99.90
27376;DHT22;14844;51.302;6.354;2023-06-24T02:58:29;16.00;99.90
27376;DHT22;14844;51.302;6.354;2023-06-24T03:00:58;16.00;99.90
27376;DHT22;14844;51.302;6.354;2023-06-24T03:03:24;16.10;99.90
27376;DHT22;14844;51.302;6.354;2023-06-24T03:05:49;16.10;99.90
27376;DHT22;14844;51.302;6.354;2023-06-24T03:08:15;16.20;99.90
27376;DHT22;14844;51.302;6.354;2023-06-24T03:10:41;16.30;99.90
27376;DHT22;14844;51.302;6.354;2023-06-24T03:13:06;16.30;99.90
27376;DHT22;14844;51.302;6.354;2023-06-24T03:15:32;16.30;99.90
27376;DHT22;14844;51.302;6.354;2023-06-24T03:17:57;16.30;99.90
27376;DHT22;14844;51.302;6.354;2023-06-24T03:20:23;16.30;99.90
27376;DHT22;14844;51.302;6.354;2023-06-24T03:22:49;16.20;99.90
27376;DHT22;14844;51.302;6.354;2023-06-24T03:25:14;16.20;99.90
27376;DHT22;14844;51.302;6.354;2023-06-24T03:27:40;16.20;99.90
27376;DHT22;14844;51.302;6.354;2023-06-24T03:30:05;16.20;99.90
27376;DHT22;14844;51.302;6.354;2023-06-24T03:32:31;16.10;99.90
27376;DHT22;14844;51.302;6.354;2023-06-24T03:34:56;16.20;99.90
27376;DHT22;14844;51.302;6.354;2023-06-24T03:37:22;16.20;99.90
27376;DHT22;14844;51.302;6.354;2023-06-24T03:39:47;16.30;99.90
27376;DHT22;14844;51.302;6.354;2023-06-24T03:42:13;16.40;99.90
27376;DHT22;14844;51.302;6.354;2023-06-24T03:44:38;16.50;99.90
27376;DHT22;14844;51.302;6.354;2023-06-24T03:47:04;16.60;99.90
27376;DHT22;14844;51.302;6.354;2023-06-24T03:49:29;16.60;99.90
27376;DHT22;14844;51.302;6.354;2023-06-24T03:51:54;16.70;99.90
27376;DHT22;14844;51.302;6.354;2023-06-24T03:54:20;16.90;99.90
27376;DHT22;14844;51.302;6.354;2023-06-24T03:56:45;16.90;99.90
27376;DHT22;14844;51.302;6.354;2023-06-24T03:59:11;17.10;99.90
27376;DHT22;14844;51.302;6.354;2023-06-24T04:01:37;17.10;99.90
27376;DHT22;14844;51.302;6.354;2023-06-24T04:04:03;17.20;99.90
27376;DHT22;14844;51.302;6.354;2023-06-24T04:06:29;17.30;99.90
27376;DHT22;14844;51.302;6.354;2023-06-24T04:08:55;17.40;99.90
27376;DHT22;14844;51.302;6.354;2023-06-24T04:11:20;17.50;99.90
27376;DHT22;14844;51.302;6.354;2023-06-24T04:13:45;17.50;99.90
27376;DHT22;14844;51.302;6.354;2023-06-24T04:16:13;17.50;99.90
27376;DHT22;14844;51.302;6.354;2023-06-24T04:18:39;17.60;99.90
27376;DHT22;14844;51.302;6.354;2023-06-24T04:21:05;17.90;99.90
27376;DHT22;14844;51.302;6.354;2023-06-24T04:23:32;18.20;99.90
27376;DHT22;14844;51.302;6.354;2023-06-24T04:25:57;18.60;99.90
27376;DHT22;14844;51.302;6.354;2023-06-24T04:28:22;18.90;99.90
27376;DHT22;14844;51.302;6.354;2023-06-24T04:30:48;18.90;99.90
27376;DHT22;14844;51.302;6.354;2023-06-24T04:33:13;18.90;99.90
27376;DHT22;14844;51.302;6.354;2023-06-24T04:35:39;18.80;99.90
27376;DHT22;14844;51.302;6.354;2023-06-24T04:38:04;18.70;99.90
27376;DHT22;14844;51.302;6.354;2023-06-24T04:40:30;18.50;99.90
27376;DHT22;14844;51.302;6.354;2023-06-24T04:42:56;18.30;99.90
27376;DHT22;14844;51.302;6.354;2023-06-24T04:45:21;18.20;99.90
27376;DHT22;14844;51.302;6.354;2023-06-24T04:47:46;18.00;99.90
27376;DHT22;14844;51.302;6.354;2023-06-24T04:50:12;18.00;99.90
27376;DHT22;14844;51.302;6.354;2023-06-24T04:52:38;17.90;99.90
27376;DHT22;14844;51.302;6.354;2023-06-24T04:55:04;17.80;99.90
27376;DHT22;14844;51.302;6.354;2023-06-24T04:57:30;17.90;99.90
27376;DHT22;14844;51.302;6.354;2023-06-24T04:59:56;17.80;99.90
27376;DHT22;14844;51.302;6.354;2023-06-24T05:02:22;17.90;99.90
27376;DHT22;14844;51.302;6.354;2023-06-24T05:04:48;17.90;99.90
27376;DHT22;14844;51.302;6.354;2023-06-24T05:07:13;18.00;99.90
27376;DHT22;14844;51.302;6.354;2023-06-24T05:09:39;18.10;99.90
27376;DHT22;14844;51.302;6.354;2023-06-24T05:12:04;18.20;99.90
27376;DHT22;14844;51.302;6.354;2023-06-24T05:14:30;18.30;99.90
27376;DHT22;14844;51.302;6.354;2023-06-24T05:16:55;18.30;99.90
27376;DHT22;14844;51.302;6.354;2023-06-24T05:19:21;18.40;99.90
27376;DHT22;14844;51.302;6.354;2023-06-24T05:21:46;18.40;99.90
27376;DHT22;14844;51.302;6.354;2023-06-24T05:24:12;18.60;99.90
27376;DHT22;14844;51.302;6.354;2023-06-24T05:26:37;18.70;99.90
27376;DHT22;14844;51.302;6.354;2023-06-24T05:29:03;18.70;99.90
27376;DHT22;14844;51.302;6.354;2023-06-24T05:31:28;18.80;99.90
27376;DHT22;14844;51.302;6.354;2023-06-24T05:33:54;18.90;99.90
27376;DHT22;14844;51.302;6.354;2023-06-24T05:36:19;19.00;99.90
27376;DHT22;14844;51.302;6.354;2023-06-24T05:38:45;19.10;99.90
27376;DHT22;14844;51.302;6.354;2023-06-24T05:41:10;19.10;99.90
27376;DHT22;14844;51.302;6.354;2023-06-24T05:43:36;19.30;99.90
27376;DHT22;14844;51.302;6.354;2023-06-24T05:46:01;19.30;99.90
27376;DHT22;14844;51.302;6.354;2023-06-24T05:48:27;19.40;99.90
27376;DHT22;14844;51.302;6.354;2023-06-24T05:50:52;19.50;99.90
27376;DHT22;14844;51.302;6.354;2023-06-24T05:53:18;19.70;99.90
27376;DHT22;14844;51.302;6.354;2023-06-24T05:55:44;19.90;99.90
27376;DHT22;14844;51.302;6.354;2023-06-24T05:58:09;19.90;99.90
27376;DHT22;14844;51.302;6.354;2023-06-24T06:00:35;20.00;99.90
27376;DHT22;14844;51.302;6.354;2023-06-24T06:03:00;20.10;99.90
27376;DHT22;14844;51.302;6.354;2023-06-24T06:05:25;20.20;99.90
27376;DHT22;14844;51.302;6.354;2023-06-24T06:07:51;20.20;99.90
27376;DHT22;14844;51.302;6.354;2023-06-24T06:10:17;20.10;99.90
27376;DHT22;14844;51.302;6.354;2023-06-24T06:12:43;20.10;99.90
27376;DHT22;14844;51.302;6.354;2023-06-24T06:15:09;20.30;99.90
27376;DHT22;14844;51.302;6.354;2023-06-24T06:17:35;20.30;99.90
27376;DHT22;14844;51.302;6.354;2023-06-24T06:20:00;20.40;99.90
27376;DHT22;14844;51.302;6.354;2023-06-24T06:22:26;20.40;99.90
27376;DHT22;14844;51.302;6.354;2023-06-24T06:24:51;20.50;99.90
27376;DHT22;14844;51.302;6.354;2023-06-24T06:27:16;20.60;99.90
27376;DHT22;14844;51.302;6.354;2023-06-24T06:29:42;20.60;99.90
27376;DHT22;14844;51.302;6.354;2023-06-24T06:32:07;20.70;99.90
27376;DHT22;14844;51.302;6.354;2023-06-24T06:34:33;20.80;99.90
27376;DHT22;14844;51.302;6.354;2023-06-24T06:36:58;20.80;99.90
27376;DHT22;14844;51.302;6.354;2023-06-24T06:39:24;21.00;99.90
27376;DHT22;14844;51.302;6.354;2023-06-24T06:41:49;21.00;99.90
27376;DHT22;14844;51.302;6.354;2023-06-24T06:44:15;21.20;99.90
27376;DHT22;14844;51.302;6.354;2023-06-24T06:46:40;21.30;99.90
27376;DHT22;14844;51.302;6.354;2023-06-24T06:49:06;21.40;99.90
27376;DHT22;14844;51.302;6.354;2023-06-24T06:51:31;21.50;99.90
27376;DHT22;14844;51.302;6.354;2023-06-24T06:53:57;21.50;99.90
27376;DHT22;14844;51.302;6.354;2023-06-24T06:56:22;21.70;99.90
27376;DHT22;14844;51.302;6.354;2023-06-24T06:58:49;21.80;99.90
27376;DHT22;14844;51.302;6.354;2023-06-24T07:01:15;21.90;99.90
27376;DHT22;14844;51.302;6.354;2023-06-24T07:03:40;21.90;99.90
27376;DHT22;14844;51.302;6.354;2023-06-24T07:06:06;22.00;99.90
27376;DHT22;14844;51.302;6.354;2023-06-24T07:08:31;22.10;99.90
27376;DHT22;14844;51.302;6.354;2023-06-24T07:10:57;22.20;99.90
27376;DHT22;14844;51.302;6.354;2023-06-24T07:13:22;22.30;99.90
27376;DHT22;14844;51.302;6.354;2023-06-24T07:15:47;22.40;99.90
27376;DHT22;14844;51.302;6.354;2023-06-24T07:18:13;22.40;99.90
27376;DHT22;14844;51.302;6.354;2023-06-24T07:20:38;22.60;99.90
27376;DHT22;14844;51.302;6.354;2023-06-24T07:23:04;22.70;99.90
27376;DHT22;14844;51.302;6.354;2023-06-24T07:25:30;22.70;99.90
27376;DHT22;14844;51.302;6.354;2023-06-24T07:27:55;22.90;99.90
27376;DHT22;14844;51.302;6.354;2023-06-24T07:30:21;23.00;99.90
27376;DHT22;14844;51.302;6.354;2023-06-24T07:32:46;23.30;99.90
27376;DHT22;14844;51.302;6.354;2023-06-24T07:35:12;23.40;99.90
27376;DHT22;14844;51.302;6.354;2023-06-24T07:37:38;23.30;99.90
27376;DHT22;14844;51.302;6.354;2023-06-24T07:40:05;23.40;99.90
27376;DHT22;14844;51.302;6.354;2023-06-24T07:42:30;23.60;99.90
27376;DHT22;14844;51.302;6.354;2023-06-24T07:44:56;23.70;99.90
27376;DHT22;14844;51.302;6.354;2023-06-24T07:47:21;23.80;99.90
27376;DHT22;14844;51.302;6.354;2023-06-24T07:49:47;24.00;99.90
27376;DHT22;14844;51.302;6.354;2023-06-24T07:52:12;24.10;99.90
27376;DHT22;14844;51.302;6.354;2023-06-24T07:54:39;24.10;99.90
27376;DHT22;14844;51.302;6.354;2023-06-24T07:57:04;24.10;99.90
27376;DHT22;14844;51.302;6.354;2023-06-24T07:59:30;24.20;99.90
27376;DHT22;14844;51.302;6.354;2023-06-24T08:01:55;24.10;99.90
27376;DHT22;14844;51.302;6.354;2023-06-24T08:04:21;24.30;99.90
27376;DHT22;14844;51.302;6.354;2023-06-24T08:06:46;24.20;99.90
27376;DHT22;14844;51.302;6.354;2023-06-24T08:09:12;24.30;99.90
27376;DHT22;14844;51.302;6.354;2023-06-24T08:11:37;24.60;99.90
27376;DHT22;14844;51.302;6.354;2023-06-24T08:14:03;24.70;99.90
27376;DHT22;14844;51.302;6.354;2023-06-24T08:16:29;24.80;99.90
27376;DHT22;14844;51.302;6.354;2023-06-24T08:18:55;24.90;99.90
27376;DHT22;14844;51.302;6.354;2023-06-24T08:21:20;25.00;99.90
27376;DHT22;14844;51.302;6.354;2023-06-24T08:23:46;25.30;99.90
27376;DHT22;14844;51.302;6.354;2023-06-24T08:26:11;25.30;99.90
27376;DHT22;14844;51.302;6.354;2023-06-24T08:28:37;25.30;99.90
27376;DHT22;14844;51.302;6.354;2023-06-24T08:31:02;25.60;99.90
27376;DHT22;14844;51.302;6.354;2023-06-24T08:33:28;25.40;99.90
27376;DHT22;14844;51.302;6.354;2023-06-24T08:35:53;25.20;99.90
27376;DHT22;14844;51.302;6.354;2023-06-24T08:38:19;25.40;99.90
27376;DHT22;14844;51.302;6.354;2023-06-24T08:40:44;25.20;99.90
27376;DHT22;14844;51.302;6.354;2023-06-24T08:43:11;25.20;99.90
27376;DHT22;14844;51.302;6.354;2023-06-24T08:45:37;25.00;99.90
27376;DHT22;14844;51.302;6.354;2023-06-24T08:48:03;25.20;99.90
27376;DHT22;14844;51.302;6.354;2023-06-24T08:50:35;25.40;99.90
27376;DHT22;14844;51.302;6.354;2023-06-24T08:53:06;25.40;99.90
27376;DHT22;14844;51.302;6.354;2023-06-24T08:55:32;25.30;99.80
27376;DHT22;14844;51.302;6.354;2023-06-24T08:57:59;25.20;99.60
27376;DHT22;14844;51.302;6.354;2023-06-24T09:00:25;25.10;99.60
27376;DHT22;14844;51.302;6.354;2023-06-24T09:02:52;25.10;98.90
27376;DHT22;14844;51.302;6.354;2023-06-24T09:05:17;25.10;98.70
27376;DHT22;14844;51.302;6.354;2023-06-24T09:07:42;25.00;99.90
27376;DHT22;14844;51.302;6.354;2023-06-24T09:10:08;24.90;98.40
27376;DHT22;14844;51.302;6.354;2023-06-24T09:12:34;24.70;97.50
27376;DHT22;14844;51.302;6.354;2023-06-24T09:15:00;25.00;99.70
27376;DHT22;14844;51.302;6.354;2023-06-24T09:17:25;25.00;97.80
27376;DHT22;14844;51.302;6.354;2023-06-24T09:19:51;25.00;98.60
27376;DHT22;14844;51.302;6.354;2023-06-24T09:22:16;25.10;98.70
27376;DHT22;14844;51.302;6.354;2023-06-24T09:24:45;25.10;96.50
27376;DHT22;14844;51.302;6.354;2023-06-24T09:27:16;25.10;97.00
27376;DHT22;14844;51.302;6.354;2023-06-24T09:29:44;25.40;98.10
27376;DHT22;14844;51.302;6.354;2023-06-24T09:32:10;25.60;97.90
27376;DHT22;14844;51.302;6.354;2023-06-24T09:34:35;25.80;96.70
27376;DHT22;14844;51.302;6.354;2023-06-24T09:37:01;25.80;95.80
27376;DHT22;14844;51.302;6.354;2023-06-24T09:39:27;25.80;95.50
27376;DHT22;14844;51.302;6.354;2023-06-24T09:41:56;25.90;96.00
27376;DHT22;14844;51.302;6.354;2023-06-24T09:44:21;25.80;93.90
27376;DHT22;14844;51.302;6.354;2023-06-24T09:46:47;25.90;95.10
27376;DHT22;14844;51.302;6.354;2023-06-24T09:49:13;25.80;94.50
27376;DHT22;14844;51.302;6.354;2023-06-24T09:51:39;25.80;95.60
27376;DHT22;14844;51.302;6.354;2023-06-24T09:54:08;26.10;95.00
27376;DHT22;14844;51.302;6.354;2023-06-24T09:56:38;26.10;93.70
27376;DHT22;14844;51.302;6.354;2023-06-24T09:59:04;26.30;91.20
27376;DHT22;14844;51.302;6.354;2023-06-24T10:01:31;26.30;93.80
27376;DHT22;14844;51.302;6.354;2023-06-24T10:03:57;26.30;94.10
27376;DHT22;14844;51.302;6.354;2023-06-24T10:06:24;26.40;90.80
27376;DHT22;14844;51.302;6.354;2023-06-24T10:08:49;26.30;88.40
27376;DHT22;14844;51.302;6.354;2023-06-24T10:11:15;26.20;87.40
27376;DHT22;14844;51.302;6.354;2023-06-24T10:13:41;26.10;86.90
27376;DHT22;14844;51.302;6.354;2023-06-24T10:16:06;26.10;83.40
27376;DHT22;14844;51.302;6.354;2023-06-24T10:18:32;26.20;83.90
27376;DHT22;14844;51.302;6.354;2023-06-24T10:20:59;26.30;80.80
27376;DHT22;14844;51.302;6.354;2023-06-24T10:23:29;26.40;83.10
27376;DHT22;14844;51.302;6.354;2023-06-24T10:25:55;26.30;85.20
27376;DHT22;14844;51.302;6.354;2023-06-24T10:28:20;26.30;82.10
27376;DHT22;14844;51.302;6.354;2023-06-24T10:30:55;26.60;82.90
27376;DHT22;14844;51.302;6.354;2023-06-24T10:33:23;26.50;80.90
27376;DHT22;14844;51.302;6.354;2023-06-24T10:35:48;26.40;76.20
27376;DHT22;14844;51.302;6.354;2023-06-24T10:38:14;26.50;77.50
27376;DHT22;14844;51.302;6.354;2023-06-24T10:40:43;26.70;81.70
27376;DHT22;14844;51.302;6.354;2023-06-24T10:46:07;26.80;78.20
27376;DHT22;14844;51.302;6.354;2023-06-24T10:48:39;26.80;74.20
27376;DHT22;14844;51.302;6.354;2023-06-24T10:51:04;26.90;78.30
27376;DHT22;14844;51.302;6.354;2023-06-24T10:53:30;26.90;74.90
27376;DHT22;14844;51.302;6.354;2023-06-24T10:55:56;27.00;74.30
27376;DHT22;14844;51.302;6.354;2023-06-24T10:58:22;26.70;77.80
27376;DHT22;14844;51.302;6.354;2023-06-24T11:00:47;26.80;75.40
27376;DHT22;14844;51.302;6.354;2023-06-24T11:03:15;26.90;76.10
27376;DHT22;14844;51.302;6.354;2023-06-24T11:05:41;27.00;75.60
27376;DHT22;14844;51.302;6.354;2023-06-24T11:08:08;27.20;77.50
27376;DHT22;14844;51.302;6.354;2023-06-24T11:10:33;27.30;75.50
27376;DHT22;14844;51.302;6.354;2023-06-24T11:13:04;27.50;76.30
27376;DHT22;14844;51.302;6.354;2023-06-24T11:15:29;27.80;77.00
27376;DHT22;14844;51.302;6.354;2023-06-24T11:17:55;27.60;71.50
27376;DHT22;14844;51.302;6.354;2023-06-24T11:20:20;27.40;68.80
27376;DHT22;14844;51.302;6.354;2023-06-24T11:22:46;27.30;72.40
27376;DHT22;14844;51.302;6.354;2023-06-24T11:25:21;27.10;71.00
27376;DHT22;14844;51.302;6.354;2023-06-24T11:27:47;27.10;66.60
27376;DHT22;14844;51.302;6.354;2023-06-24T11:30:12;27.20;70.30
27376;DHT22;14844;51.302;6.354;2023-06-24T11:32:39;27.30;69.70
27376;DHT22;14844;51.302;6.354;2023-06-24T11:35:08;27.30;72.10
27376;DHT22;14844;51.302;6.354;2023-06-24T11:37:33;27.20;71.00
27376;DHT22;14844;51.302;6.354;2023-06-24T11:40:03;27.00;68.50
27376;DHT22;14844;51.302;6.354;2023-06-24T11:42:30;26.90;69.50
27376;DHT22;14844;51.302;6.354;2023-06-24T11:45:06;27.00;68.10
27376;DHT22;14844;51.302;6.354;2023-06-24T11:47:32;27.00;64.30
27376;DHT22;14844;51.302;6.354;2023-06-24T11:49:59;27.10;65.70
27376;DHT22;14844;51.302;6.354;2023-06-24T11:52:41;27.30;68.20
27376;DHT22;14844;51.302;6.354;2023-06-24T11:55:12;27.50;68.10
27376;DHT22;14844;51.302;6.354;2023-06-24T11:57:50;27.70;68.20
27376;DHT22;14844;51.302;6.354;2023-06-24T12:00:19;27.70;67.60
27376;DHT22;14844;51.302;6.354;2023-06-24T12:02:44;27.50;64.80
27376;DHT22;14844;51.302;6.354;2023-06-24T12:05:10;27.70;68.40
27376;DHT22;14844;51.302;6.354;2023-06-24T12:07:35;27.90;65.70
27376;DHT22;14844;51.302;6.354;2023-06-24T12:10:00;28.10;65.10
27376;DHT22;14844;51.302;6.354;2023-06-24T12:12:26;28.30;66.80
27376;DHT22;14844;51.302;6.354;2023-06-24T12:14:51;28.40;65.90
27376;DHT22;14844;51.302;6.354;2023-06-24T12:17:17;28.00;65.70
27376;DHT22;14844;51.302;6.354;2023-06-24T12:19:42;28.00;64.00
27376;DHT22;14844;51.302;6.354;2023-06-24T12:22:08;28.00;67.20
27376;DHT22;14844;51.302;6.354;2023-06-24T12:24:33;28.00;66.20
27376;DHT22;14844;51.302;6.354;2023-06-24T12:26:59;28.20;66.30
27376;DHT22;14844;51.302;6.354;2023-06-24T12:29:25;28.40;69.00
27376;DHT22;14844;51.302;6.354;2023-06-24T12:31:50;28.10;62.40
27376;DHT22;14844;51.302;6.354;2023-06-24T12:34:16;28.00;64.80
27376;DHT22;14844;51.302;6.354;2023-06-24T12:36:41;27.90;64.60
27376;DHT22;14844;51.302;6.354;2023-06-24T12:39:07;27.90;64.80
27376;DHT22;14844;51.302;6.354;2023-06-24T12:41:32;27.70;61.40
27376;DHT22;14844;51.302;6.354;2023-06-24T12:43:58;27.70;63.90
27376;DHT22;14844;51.302;6.354;2023-06-24T12:46:24;27.80;64.90
27376;DHT22;14844;51.302;6.354;2023-06-24T12:48:49;28.10;67.50
27376;DHT22;14844;51.302;6.354;2023-06-24T12:51:15;28.20;65.10
27376;DHT22;14844;51.302;6.354;2023-06-24T12:53:40;28.40;63.20
27376;DHT22;14844;51.302;6.354;2023-06-24T12:56:06;28.40;58.80
27376;DHT22;14844;51.302;6.354;2023-06-24T12:58:31;28.20;58.00
27376;DHT22;14844;51.302;6.354;2023-06-24T13:00:57;28.10;61.40
27376;DHT22;14844;51.302;6.354;2023-06-24T13:03:22;28.00;59.50
27376;DHT22;14844;51.302;6.354;2023-06-24T13:05:48;27.90;60.90
27376;DHT22;14844;51.302;6.354;2023-06-24T13:08:13;27.80;56.30
27376;DHT22;14844;51.302;6.354;2023-06-24T13:10:39;28.00;60.90
27376;DHT22;14844;51.302;6.354;2023-06-24T13:13:05;28.30;59.90
27376;DHT22;14844;51.302;6.354;2023-06-24T13:15:31;28.40;62.70
27376;DHT22;14844;51.302;6.354;2023-06-24T13:17:56;28.40;58.50
27376;DHT22;14844;51.302;6.354;2023-06-24T13:20:21;28.40;60.40
27376;DHT22;14844;51.302;6.354;2023-06-24T13:22:47;28.70;61.40
27376;DHT22;14844;51.302;6.354;2023-06-24T13:25:12;28.70;58.00
27376;DHT22;14844;51.302;6.354;2023-06-24T13:27:38;28.80;58.00
27376;DHT22;14844;51.302;6.354;2023-06-24T13:30:03;28.60;60.40
27376;DHT22;14844;51.302;6.354;2023-06-24T13:32:29;28.50;58.80
27376;DHT22;14844;51.302;6.354;2023-06-24T13:34:54;28.70;59.00
27376;DHT22;14844;51.302;6.354;2023-06-24T13:37:20;28.70;59.30
27376;DHT22;14844;51.302;6.354;2023-06-24T13:39:47;28.90;59.20
27376;DHT22;14844;51.302;6.354;2023-06-24T13:42:13;29.10;63.80
27376;DHT22;14844;51.302;6.354;2023-06-24T13:44:38;29.10;56.90
27376;DHT22;14844;51.302;6.354;2023-06-24T13:47:04;29.20;56.40
27376;DHT22;14844;51.302;6.354;2023-06-24T13:49:29;29.20;63.70
27376;DHT22;14844;51.302;6.354;2023-06-24T13:51:55;29.20;60.80
27376;DHT22;14844;51.302;6.354;2023-06-24T13:54:20;28.90;60.00
27376;DHT22;14844;51.302;6.354;2023-06-24T13:56:46;28.60;59.30
27376;DHT22;14844;51.302;6.354;2023-06-24T13:59:11;28.40;62.10
27376;DHT22;14844;51.302;6.354;2023-06-24T14:01:37;28.60;61.90
27376;DHT22;14844;51.302;6.354;2023-06-24T14:04:03;28.60;60.30
27376;DHT22;14844;51.302;6.354;2023-06-24T14:06:28;28.70;58.90
27376;DHT22;14844;51.302;6.354;2023-06-24T14:08:53;28.60;58.20
27376;DHT22;14844;51.302;6.354;2023-06-24T14:11:19;28.70;57.90
27376;DHT22;14844;51.302;6.354;2023-06-24T14:13:44;28.70;59.70
27376;DHT22;14844;51.302;6.354;2023-06-24T14:16:10;28.60;58.50
27376;DHT22;14844;51.302;6.354;2023-06-24T14:18:36;28.70;58.70
27376;DHT22;14844;51.302;6.354;2023-06-24T14:21:02;28.80;57.00
27376;DHT22;14844;51.302;6.354;2023-06-24T14:23:29;29.20;55.30
27376;DHT22;14844;51.302;6.354;2023-06-24T14:25:54;29.70;53.70
27376;DHT22;14844;51.302;6.354;2023-06-24T14:28:20;30.90;52.60
27376;DHT22;14844;51.302;6.354;2023-06-24T14:30:45;32.50;51.90
27376;DHT22;14844;51.302;6.354;2023-06-24T14:33:11;33.90;52.60
27376;DHT22;14844;51.302;6.354;2023-06-24T14:35:37;35.10;49.80
27376;DHT22;14844;51.302;6.354;2023-06-24T14:38:02;35.10;46.30
27376;DHT22;14844;51.302;6.354;2023-06-24T14:40:28;35.80;45.90
27376;DHT22;14844;51.302;6.354;2023-06-24T14:42:53;37.30;44.60
27376;DHT22;14844;51.302;6.354;2023-06-24T14:45:19;36.10;41.60
27376;DHT22;14844;51.302;6.354;2023-06-24T14:47:44;36.60;42.20
27376;DHT22;14844;51.302;6.354;2023-06-24T14:50:10;38.00;39.80
27376;DHT22;14844;51.302;6.354;2023-06-24T14:52:35;38.30;37.10
27376;DHT22;14844;51.302;6.354;2023-06-24T14:55:01;37.70;39.10
27376;DHT22;14844;51.302;6.354;2023-06-24T14:57:26;37.10;38.80
27376;DHT22;14844;51.302;6.354;2023-06-24T14:59:51;36.70;37.50
27376;DHT22;14844;51.302;6.354;2023-06-24T15:02:17;36.60;38.10
27376;DHT22;14844;51.302;6.354;2023-06-24T15:04:43;36.40;38.40
27376;DHT22;14844;51.302;6.354;2023-06-24T15:07:08;37.00;36.90
27376;DHT22;14844;51.302;6.354;2023-06-24T15:09:34;37.60;36.20
27376;DHT22;14844;51.302;6.354;2023-06-24T15:12:00;38.00;36.10
27376;DHT22;14844;51.302;6.354;2023-06-24T15:14:25;38.70;35.90
27376;DHT22;14844;51.302;6.354;2023-06-24T15:16:51;39.20;36.30
27376;DHT22;14844;51.302;6.354;2023-06-24T15:19:19;39.00;34.50
27376;DHT22;14844;51.302;6.354;2023-06-24T15:21:44;39.10;34.90
27376;DHT22;14844;51.302;6.354;2023-06-24T15:24:10;37.80;36.10
27376;DHT22;14844;51.302;6.354;2023-06-24T15:26:35;37.70;35.00
27376;DHT22;14844;51.302;6.354;2023-06-24T15:29:00;38.10;35.90
27376;DHT22;14844;51.302;6.354;2023-06-24T15:31:26;38.80;34.40